Time;durP1;ratioP1;P1;durP2;ratioP2;P2;SDS_P1;SDS_P2;PMS_P1;PMS_P2;Temp;Humidity;BMP_temperature;BMP_pressure;BME280_temperature;BME280_humidity;BME280_pressure;Samples;Min_cycle;Max_cycle;Signal;HPM_P1;HPM_P2
2022/02/24 00:00:21;;;;;;;2.15;1.40;;;8.80;99.90;;;;;;5025259;28;20885;-50
2022/02/24 00:02:51;;;;;;;2.87;1.83;;;8.80;99.90;;;;;;5024741;28;20744;-49
2022/02/24 00:05:19;;;;;;;3.22;2.42;;;8.80;99.90;;;;;;5024767;28;20655;-48
2022/02/24 00:07:48;;;;;;;2.30;1.30;;;8.80;99.90;;;;;;5026021;28;20277;-46
2022/02/24 00:10:19;;;;;;;2.00;1.50;;;8.80;99.90;;;;;;5024705;28;20220;-47
2022/02/24 00:12:48;;;;;;;2.63;1.17;;;8.80;99.90;;;;;;5025654;28;20530;-47
2022/02/24 00:15:16;;;;;;;1.80;1.63;;;8.80;99.90;;;;;;5034534;28;20490;-48
2022/02/24 00:17:44;;;;;;;1.45;1.25;;;8.80;99.90;;;;;;5025692;28;20280;-48
2022/02/24 00:20:14;;;;;;;4.40;1.63;;;8.80;99.90;;;;;;5026860;28;20248;-52
2022/02/24 00:22:43;;;;;;;2.10;1.90;;;8.80;99.90;;;;;;5025464;28;20642;-47
2022/02/24 00:25:11;;;;;;;2.53;1.67;;;8.80;99.90;;;;;;5024390;28;20475;-50
2022/02/24 00:27:39;;;;;;;2.20;2.00;;;8.80;99.90;;;;;;5025463;28;20911;-47
2022/02/24 00:30:10;;;;;;;2.63;2.13;;;8.80;99.90;;;;;;5024815;28;20478;-50
2022/02/24 00:32:39;;;;;;;2.10;1.70;;;8.80;99.90;;;;;;5024764;28;20880;-48
2022/02/24 00:35:11;;;;;;;3.42;1.65;;;8.80;99.90;;;;;;5010368;28;20691;-48
2022/02/24 00:37:42;;;;;;;2.08;1.73;;;8.80;99.90;;;;;;5025867;28;20195;-48
2022/02/24 00:40:12;;;;;;;2.97;1.50;;;8.80;99.90;;;;;;5024544;28;20684;-47
2022/02/24 00:42:40;;;;;;;2.77;1.57;;;8.80;99.90;;;;;;5023092;28;20196;-47
2022/02/24 00:45:09;;;;;;;2.30;1.40;;;8.80;99.90;;;;;;5024471;28;20471;-48
2022/02/24 00:47:37;;;;;;;3.50;1.93;;;8.80;99.90;;;;;;5025732;28;20424;-48
2022/02/24 00:50:06;;;;;;;1.73;1.63;;;8.80;99.90;;;;;;5024589;28;20481;-48
2022/02/24 00:52:34;;;;;;;3.17;1.83;;;8.80;99.90;;;;;;5025884;28;20201;-49
2022/02/24 00:55:04;;;;;;;2.47;1.52;;;8.80;99.90;;;;;;5023456;28;20501;-48
2022/02/24 00:57:32;;;;;;;1.90;1.45;;;8.80;99.90;;;;;;5024156;28;20197;-49
2022/02/24 01:00:00;;;;;;;1.90;1.58;;;8.80;99.90;;;;;;5039093;28;20223;-48
2022/02/24 01:02:28;;;;;;;3.90;1.57;;;8.80;99.90;;;;;;5025970;28;20551;-49
2022/02/24 01:04:56;;;;;;;1.83;1.48;;;8.80;99.90;;;;;;5023085;28;20556;-47
2022/02/24 01:07:25;;;;;;;1.90;1.50;;;8.80;99.90;;;;;;5024805;28;20807;-50
2022/02/24 01:09:52;;;;;;;3.40;1.90;;;8.80;99.90;;;;;;5024126;28;20247;-49
2022/02/24 01:12:24;;;;;;;1.53;1.43;;;8.80;99.90;;;;;;5025147;28;20649;-49
2022/02/24 01:14:52;;;;;;;2.00;1.70;;;8.80;99.90;;;;;;5023662;28;20459;-50
2022/02/24 01:17:22;;;;;;;2.77;2.00;;;8.80;99.90;;;;;;5024702;28;20875;-50
2022/02/24 01:19:51;;;;;;;2.63;1.90;;;8.80;99.90;;;;;;5029524;28;20892;-47
2022/02/24 01:22:21;;;;;;;4.07;1.47;;;8.80;99.90;;;;;;5045684;28;20788;-46
2022/02/24 01:24:49;;;;;;;1.90;1.20;;;8.80;99.90;;;;;;5036169;28;20902;-47
2022/02/24 01:27:19;;;;;;;4.10;2.97;;;8.80;99.90;;;;;;5025354;28;20280;-50
2022/02/24 01:29:48;;;;;;;3.20;2.13;;;8.80;99.90;;;;;;5023641;28;20902;-48
2022/02/24 01:32:16;;;;;;;2.73;1.67;;;8.80;99.90;;;;;;5025336;28;20478;-48
2022/02/24 01:34:45;;;;;;;1.52;1.42;;;8.80;99.90;;;;;;5022495;28;20474;-47
2022/02/24 01:37:14;;;;;;;3.65;2.38;;;8.80;99.90;;;;;;5024954;28;20551;-47
2022/02/24 01:39:42;;;;;;;1.98;1.83;;;8.80;99.90;;;;;;5024087;28;20258;-46
2022/02/24 01:42:10;;;;;;;3.20;1.63;;;8.80;99.90;;;;;;5025301;28;20616;-48
2022/02/24 01:44:42;;;;;;;2.67;2.15;;;8.80;99.90;;;;;;5024098;28;20956;-47
2022/02/24 01:47:12;;;;;;;1.80;1.70;;;8.80;99.90;;;;;;5025359;28;20201;-49
2022/02/24 01:49:40;;;;;;;1.50;1.40;;;8.80;99.90;;;;;;5023187;28;20855;-48
2022/02/24 01:52:12;;;;;;;1.80;1.65;;;8.80;99.90;;;;;;5018767;28;20446;-51
2022/02/24 01:54:41;;;;;;;2.90;2.10;;;8.80;99.90;;;;;;5023773;28;20318;-47
2022/02/24 01:57:10;;;;;;;2.17;1.50;;;8.80;99.90;;;;;;5028164;28;20570;-47
2022/02/24 01:59:38;;;;;;;5.50;1.97;;;8.80;99.90;;;;;;5026921;28;20501;-48
2022/02/24 02:02:06;;;;;;;1.53;1.43;;;8.80;99.90;;;;;;5029029;28;20540;-46
2022/02/24 02:04:36;;;;;;;1.90;1.50;;;8.80;99.90;;;;;;5029172;28;20464;-47
2022/02/24 02:07:04;;;;;;;1.70;1.60;;;8.80;99.90;;;;;;5049427;28;20434;-50
2022/02/24 02:09:34;;;;;;;3.17;1.60;;;8.80;99.90;;;;;;5037773;28;20279;-50
2022/02/24 02:12:03;;;;;;;2.35;1.67;;;8.80;99.90;;;;;;5034743;28;20496;-48
2022/02/24 02:14:32;;;;;;;2.00;1.50;;;8.80;99.90;;;;;;5036670;28;20191;-49
2022/02/24 02:17:01;;;;;;;2.25;1.60;;;8.80;99.90;;;;;;5035655;28;20548;-50
2022/02/24 02:19:29;;;;;;;1.42;1.33;;;8.80;99.90;;;;;;5035902;28;20213;-51
2022/02/24 02:21:59;;;;;;;2.10;1.40;;;8.80;99.90;;;;;;5055101;28;20233;-50
2022/02/24 02:24:27;;;;;;;2.00;1.70;;;8.80;99.90;;;;;;5049813;28;20438;-48
2022/02/24 02:26:57;;;;;;;3.17;1.50;;;8.80;99.90;;;;;;5039469;28;20258;-50
2022/02/24 02:29:25;;;;;;;3.30;1.40;;;8.80;99.90;;;;;;5035512;28;20723;-48
2022/02/24 02:31:53;;;;;;;2.05;1.67;;;8.80;99.90;;;;;;5031701;28;20261;-47
2022/02/24 02:34:21;;;;;;;2.40;1.37;;;8.80;99.90;;;;;;5029285;28;20275;-47
2022/02/24 02:36:49;;;;;;;2.15;1.95;;;8.80;99.90;;;;;;5031493;28;20464;-48
2022/02/24 02:39:19;;;;;;;1.70;1.40;;;8.80;99.90;;;;;;5030585;28;20202;-49
2022/02/24 02:41:48;;;;;;;2.47;1.50;;;8.80;99.90;;;;;;5030910;28;20247;-47
2022/02/24 02:44:16;;;;;;;1.73;1.40;;;8.80;99.90;;;;;;5030494;28;20479;-48
2022/02/24 02:46:45;;;;;;;2.88;2.08;;;8.80;99.90;;;;;;5051292;28;20441;-47
2022/02/24 02:49:13;;;;;;;2.88;1.88;;;8.80;99.90;;;;;;5040122;28;20274;-48
2022/02/24 02:51:43;;;;;;;2.83;1.37;;;8.80;99.90;;;;;;5030163;28;20223;-47
2022/02/24 02:54:11;;;;;;;2.83;1.40;;;8.80;99.90;;;;;;5029977;28;20431;-48
2022/02/24 02:56:41;;;;;;;7.10;1.50;;;8.80;99.90;;;;;;5030410;28;20549;-47
2022/02/24 02:59:09;;;;;;;1.83;1.60;;;8.80;99.90;;;;;;5036573;28;20227;-48
2022/02/24 03:01:37;;;;;;;1.42;1.00;;;8.80;99.90;;;;;;5029253;28;20222;-47
2022/02/24 03:04:06;;;;;;;1.50;1.40;;;8.80;99.90;;;;;;5029553;28;20183;-50
2022/02/24 03:06:34;;;;;;;1.70;1.15;;;8.80;99.90;;;;;;5029678;28;20487;-47
2022/02/24 03:09:02;;;;;;;1.77;1.27;;;8.80;99.90;;;;;;5030123;28;20603;-47
2022/02/24 03:11:30;;;;;;;2.60;1.90;;;8.80;99.90;;;;;;5030040;28;20492;-48
2022/02/24 03:13:59;;;;;;;2.83;1.70;;;8.80;99.90;;;;;;5038698;28;20265;-48
2022/02/24 03:16:27;;;;;;;1.40;1.30;;;8.80;99.90;;;;;;5030354;28;20312;-48
2022/02/24 03:18:55;;;;;;;2.25;1.52;;;8.80;99.90;;;;;;5030295;28;20219;-48
2022/02/24 03:21:23;;;;;;;1.65;1.45;;;8.80;99.90;;;;;;5043470;28;20239;-47
2022/02/24 03:23:52;;;;;;;1.67;1.30;;;8.80;99.90;;;;;;5030243;28;20280;-48
2022/02/24 03:26:20;;;;;;;1.90;1.48;;;8.80;99.90;;;;;;5029245;28;20612;-48
2022/02/24 03:28:48;;;;;;;2.17;1.30;;;8.80;99.90;;;;;;5030439;28;20251;-49
2022/02/24 03:31:18;;;;;;;1.50;1.30;;;8.80;99.90;;;;;;5031291;28;20668;-48
2022/02/24 03:33:47;;;;;;;1.80;1.60;;;8.80;99.90;;;;;;5029307;28;20452;-51
2022/02/24 03:36:15;;;;;;;1.50;1.40;;;8.80;99.90;;;;;;5028012;28;20466;-50
2022/02/24 03:38:43;;;;;;;4.15;1.75;;;8.70;99.90;;;;;;5029377;28;20539;-50
2022/02/24 03:41:11;;;;;;;1.30;1.20;;;8.80;99.90;;;;;;5028957;28;20319;-50
2022/02/24 03:43:39;;;;;;;1.40;1.30;;;8.80;99.90;;;;;;5018295;28;20472;-50
2022/02/24 03:46:08;;;;;;;2.17;1.50;;;8.80;99.90;;;;;;5023682;28;20480;-48
2022/02/24 03:48:37;;;;;;;3.47;1.87;;;8.80;99.90;;;;;;5029952;28;20446;-48
2022/02/24 03:51:05;;;;;;;1.43;1.30;;;8.80;99.90;;;;;;5020289;28;20471;-49
2022/02/24 03:53:33;;;;;;;2.35;1.75;;;8.80;99.90;;;;;;5029595;28;20497;-50
2022/02/24 03:56:01;;;;;;;1.15;1.05;;;8.80;99.90;;;;;;5028767;28;20238;-48
2022/02/24 03:58:29;;;;;;;1.35;1.10;;;8.80;99.90;;;;;;5027888;28;20184;-49
2022/02/24 04:00:58;;;;;;;2.00;1.50;;;8.70;99.90;;;;;;5028483;28;20309;-49
2022/02/24 04:03:31;;;;;;;1.20;1.10;;;8.80;99.90;;;;;;5028597;28;20458;-48
2022/02/24 04:06:01;;;;;;;1.47;1.30;;;8.80;99.90;;;;;;5006352;28;20475;-49
2022/02/24 04:08:29;;;;;;;2.40;1.17;;;8.70;99.90;;;;;;5028872;28;20869;-48
2022/02/24 04:10:57;;;;;;;1.60;1.10;;;8.70;99.90;;;;;;5028566;28;20555;-47
2022/02/24 04:13:25;;;;;;;2.38;1.33;;;8.70;99.90;;;;;;5028140;28;20496;-48
2022/02/24 04:15:53;;;;;;;1.67;1.42;;;8.70;99.90;;;;;;5010485;28;20222;-48
2022/02/24 04:18:22;;;;;;;1.60;1.30;;;8.70;99.90;;;;;;5028708;28;20602;-47
2022/02/24 04:20:50;;;;;;;1.73;1.40;;;8.70;99.90;;;;;;5028278;28;20482;-49
2022/02/24 04:23:19;;;;;;;2.00;1.30;;;8.70;99.90;;;;;;5028712;28;20949;-48
2022/02/24 04:25:47;;;;;;;1.52;1.35;;;8.70;99.90;;;;;;5027961;28;20460;-47
2022/02/24 04:28:15;;;;;;;1.67;1.38;;;8.70;99.90;;;;;;5028566;28;20289;-46
2022/02/24 04:30:43;;;;;;;1.45;1.20;;;8.70;99.90;;;;;;5028394;28;20227;-47
2022/02/24 04:33:11;;;;;;;3.05;1.50;;;8.70;99.90;;;;;;5028577;28;20228;-48
2022/02/24 04:35:40;;;;;;;1.30;1.20;;;8.70;99.90;;;;;;5035456;28;20222;-47
2022/02/24 04:38:08;;;;;;;1.20;1.10;;;8.70;99.90;;;;;;5029002;28;20607;-49
2022/02/24 04:40:38;;;;;;;2.13;1.80;;;8.70;99.90;;;;;;5028041;28;20275;-49
2022/02/24 04:43:06;;;;;;;2.17;1.10;;;8.70;99.90;;;;;;5039550;28;20207;-47
2022/02/24 04:45:34;;;;;;;1.80;1.60;;;8.70;99.90;;;;;;5028183;28;20231;-49
2022/02/24 04:48:02;;;;;;;1.27;1.17;;;8.70;99.90;;;;;;5028852;28;20244;-47
2022/02/24 04:50:30;;;;;;;3.50;1.43;;;8.70;99.90;;;;;;5027215;28;20341;-47
2022/02/24 04:52:59;;;;;;;1.73;1.42;;;8.70;99.90;;;;;;5009919;28;20443;-49
2022/02/24 04:55:27;;;;;;;2.65;1.60;;;8.70;99.90;;;;;;5018291;28;20306;-47
2022/02/24 04:57:56;;;;;;;3.45;1.35;;;8.70;99.90;;;;;;5023421;28;20220;-47
2022/02/24 05:00:25;;;;;;;1.42;1.23;;;8.70;99.90;;;;;;5029871;28;20299;-50
2022/02/24 05:02:53;;;;;;;1.00;0.90;;;8.70;99.90;;;;;;5028770;28;20209;-50
2022/02/24 05:05:21;;;;;;;2.17;1.50;;;8.70;99.90;;;;;;5027030;28;20229;-48
2022/02/24 05:07:49;;;;;;;3.55;1.40;;;8.70;99.90;;;;;;5028232;28;20203;-47
2022/02/24 05:10:20;;;;;;;2.13;1.93;;;8.70;99.90;;;;;;5028261;28;20233;-47
2022/02/24 05:12:50;;;;;;;2.28;1.45;;;8.70;99.90;;;;;;5028432;28;20442;-47
2022/02/24 05:15:19;;;;;;;2.27;1.37;;;8.70;99.90;;;;;;5032139;28;20231;-47
2022/02/24 05:17:47;;;;;;;1.50;1.40;;;8.70;99.90;;;;;;5025356;28;20496;-49
2022/02/24 05:20:16;;;;;;;1.58;1.27;;;8.70;99.90;;;;;;5025390;28;20675;-48
2022/02/24 05:22:44;;;;;;;1.40;1.30;;;8.70;99.90;;;;;;5027062;28;20217;-48
2022/02/24 05:25:13;;;;;;;1.42;1.33;;;8.70;99.90;;;;;;5027551;28;21715;-47
2022/02/24 05:27:42;;;;;;;2.78;1.67;;;8.70;99.90;;;;;;5028592;28;20204;-49
2022/02/24 05:30:13;;;;;;;1.98;1.38;;;8.70;99.90;;;;;;5031819;28;20231;-48
2022/02/24 05:32:43;;;;;;;3.80;1.50;;;8.70;99.90;;;;;;5032197;28;20215;-47
2022/02/24 05:35:11;;;;;;;4.32;1.35;;;8.70;99.90;;;;;;5031138;28;20247;-47
2022/02/24 05:37:39;;;;;;;1.50;1.17;;;8.70;99.90;;;;;;5033014;28;20203;-49
2022/02/24 05:40:08;;;;;;;1.20;1.17;;;8.70;99.90;;;;;;5032503;28;20318;-49
2022/02/24 05:42:36;;;;;;;1.97;1.43;;;8.70;99.90;;;;;;5032376;28;20618;-47
2022/02/24 05:45:05;;;;;;;2.90;1.10;;;8.70;99.90;;;;;;5044425;28;20469;-49
2022/02/24 05:47:34;;;;;;;2.23;1.20;;;8.70;99.90;;;;;;5041980;28;20775;-47
2022/02/24 05:50:07;;;;;;;2.07;1.70;;;8.70;99.90;;;;;;5037986;28;20864;-47
2022/02/24 05:52:35;;;;;;;2.42;1.70;;;8.70;99.90;;;;;;5052151;28;20432;-47
2022/02/24 05:55:04;;;;;;;1.67;1.50;;;8.70;99.90;;;;;;5051392;28;20214;-48
2022/02/24 05:57:33;;;;;;;1.43;1.33;;;8.70;99.90;;;;;;5052125;28;20554;-48
2022/02/24 06:00:01;;;;;;;1.52;1.10;;;8.70;99.90;;;;;;5049923;28;20503;-46
2022/02/24 06:02:39;;;;;;;1.65;1.55;;;8.70;99.90;;;;;;5052207;28;20623;-48
2022/02/24 06:05:09;;;;;;;1.63;1.53;;;8.70;99.90;;;;;;5049628;28;20226;-49
2022/02/24 06:07:37;;;;;;;2.08;1.50;;;8.70;99.90;;;;;;5051953;28;20449;-48
2022/02/24 06:10:06;;;;;;;2.33;1.60;;;8.70;99.90;;;;;;5051281;28;20246;-48
2022/02/24 06:12:34;;;;;;;1.63;1.48;;;8.70;99.90;;;;;;5050475;28;20294;-49
2022/02/24 06:15:02;;;;;;;2.60;1.60;;;8.70;99.90;;;;;;5045650;28;20258;-47
2022/02/24 06:17:37;;;;;;;2.40;1.87;;;8.70;99.90;;;;;;5029035;28;20531;-48
2022/02/24 06:20:06;;;;;;;2.47;1.50;;;8.70;99.90;;;;;;5031148;28;20906;-47
2022/02/24 06:22:36;;;;;;;1.92;1.10;;;8.70;99.90;;;;;;5031230;28;21041;-48
2022/02/24 06:25:05;;;;;;;1.10;1.00;;;8.70;99.90;;;;;;5030828;28;20264;-48
2022/02/24 06:27:33;;;;;;;2.15;1.30;;;8.70;99.90;;;;;;5032353;28;20257;-47
2022/02/24 06:30:02;;;;;;;3.63;2.30;;;8.70;99.90;;;;;;5026346;28;20763;-47
2022/02/24 06:32:30;;;;;;;2.73;1.20;;;8.60;99.90;;;;;;5014553;28;20463;-46
2022/02/24 06:35:00;;;;;;;1.42;1.33;;;8.70;99.90;;;;;;5029569;28;20465;-50
2022/02/24 06:37:30;;;;;;;1.92;1.65;;;8.70;99.90;;;;;;5030836;28;20205;-47
2022/02/24 06:39:59;;;;;;;1.70;1.50;;;8.70;99.90;;;;;;5028743;28;20224;-47
2022/02/24 06:42:28;;;;;;;1.42;1.33;;;8.70;99.90;;;;;;5030802;28;20201;-48
2022/02/24 06:44:56;;;;;;;1.70;1.35;;;8.70;99.90;;;;;;5027812;28;20253;-48
2022/02/24 06:47:24;;;;;;;1.70;1.30;;;8.70;99.90;;;;;;5025015;28;20449;-47
2022/02/24 06:49:52;;;;;;;3.47;1.27;;;8.60;99.90;;;;;;5027418;28;20696;-47
2022/02/24 06:52:20;;;;;;;2.08;1.50;;;8.70;99.90;;;;;;5029005;28;20195;-47
2022/02/24 06:54:49;;;;;;;1.60;1.30;;;8.60;99.90;;;;;;5029448;28;20221;-46
2022/02/24 06:57:19;;;;;;;2.88;1.33;;;8.60;99.90;;;;;;5025932;28;20342;-48
2022/02/24 06:59:47;;;;;;;14.95;3.45;;;8.70;99.90;;;;;;5011749;28;20376;-47
2022/02/24 07:02:16;;;;;;;7.20;1.77;;;8.70;99.90;;;;;;5029034;28;20241;-50
2022/02/24 07:04:50;;;;;;;1.92;1.38;;;8.60;99.90;;;;;;5027811;28;20871;-48
2022/02/24 07:07:19;;;;;;;1.73;1.20;;;8.60;99.90;;;;;;5035508;28;20194;-47
2022/02/24 07:09:48;;;;;;;3.03;1.60;;;8.60;99.90;;;;;;5028764;28;20464;-49
2022/02/24 07:12:16;;;;;;;8.40;2.50;;;8.60;99.90;;;;;;5032716;28;20448;-52
2022/02/24 07:14:45;;;;;;;2.90;1.57;;;8.60;99.90;;;;;;5026651;28;20465;-50
2022/02/24 07:17:17;;;;;;;5.60;2.10;;;8.60;99.90;;;;;;5037049;28;20965;-49
2022/02/24 07:19:45;;;;;;;4.47;2.28;;;8.60;99.90;;;;;;5027953;28;20217;-48
2022/02/24 07:22:15;;;;;;;5.93;1.60;;;8.70;99.90;;;;;;5029263;28;20213;-49
2022/02/24 07:24:45;;;;;;;2.55;1.52;;;8.60;99.90;;;;;;5026942;28;20274;-50
2022/02/24 07:27:14;;;;;;;3.50;1.70;;;8.60;99.90;;;;;;5027386;28;20196;-50
2022/02/24 07:29:42;;;;;;;1.50;1.40;;;8.60;99.90;;;;;;5029847;28;20474;-50
2022/02/24 07:32:12;;;;;;;2.60;1.83;;;8.60;99.90;;;;;;5030505;28;20213;-51
2022/02/24 07:34:40;;;;;;;4.28;1.73;;;8.60;99.90;;;;;;5044558;28;20228;-49
2022/02/24 07:37:08;;;;;;;2.30;1.40;;;8.60;99.90;;;;;;5050586;28;20260;-51
2022/02/24 07:39:37;;;;;;;2.25;1.60;;;8.60;99.90;;;;;;5049506;28;20513;-50
2022/02/24 07:42:07;;;;;;;2.03;1.80;;;8.60;99.90;;;;;;5050511;28;20223;-51
2022/02/24 07:44:37;;;;;;;5.00;1.70;;;8.60;99.90;;;;;;5035588;28;20197;-49
2022/02/24 07:47:06;;;;;;;2.00;1.70;;;8.60;99.90;;;;;;5030454;28;20217;-49
2022/02/24 07:49:35;;;;;;;2.43;1.40;;;8.60;99.90;;;;;;5028591;28;20440;-50
2022/02/24 07:52:06;;;;;;;1.87;1.47;;;8.60;99.90;;;;;;5029052;28;20444;-50
2022/02/24 07:54:34;;;;;;;3.30;1.70;;;8.60;99.90;;;;;;5029340;28;20973;-50
2022/02/24 07:57:02;;;;;;;2.88;1.50;;;8.60;99.90;;;;;;5030163;28;20200;-49
2022/02/24 07:59:31;;;;;;;3.33;1.63;;;8.60;99.90;;;;;;5043626;28;20209;-48
2022/02/24 08:02:03;;;;;;;3.27;1.77;;;8.60;99.90;;;;;;5049907;28;20815;-50
2022/02/24 08:04:32;;;;;;;1.60;1.50;;;8.60;99.90;;;;;;5045020;28;20467;-50
2022/02/24 08:07:02;;;;;;;1.77;1.40;;;8.60;99.90;;;;;;5030215;28;20193;-50
2022/02/24 08:09:30;;;;;;;2.05;1.85;;;8.60;99.90;;;;;;5021699;28;20200;-50
2022/02/24 08:14:44;;;;;;;2.50;1.75;;;8.60;99.90;;;;;;5043637;28;20464;-50
2022/02/24 08:17:13;;;;;;;2.10;1.13;;;8.60;99.90;;;;;;5049479;28;20195;-50
2022/02/24 08:19:42;;;;;;;4.07;1.88;;;8.60;99.90;;;;;;5025461;28;20458;-50
2022/02/24 08:22:12;;;;;;;3.57;1.53;;;8.60;99.90;;;;;;5030191;28;20220;-49
2022/02/24 08:24:40;;;;;;;1.70;1.13;;;8.60;99.90;;;;;;5028688;28;20839;-51
2022/02/24 08:27:08;;;;;;;1.65;1.25;;;8.60;99.90;;;;;;5029707;28;20954;-49
2022/02/24 08:29:36;;;;;;;2.50;1.42;;;8.60;99.90;;;;;;5035821;28;20203;-49
2022/02/24 08:32:05;;;;;;;1.50;1.10;;;8.60;99.90;;;;;;5049136;28;20660;-49
2022/02/24 08:34:33;;;;;;;1.42;1.33;;;8.60;99.90;;;;;;5046831;28;20441;-48
2022/02/24 08:37:01;;;;;;;1.63;1.52;;;8.60;99.90;;;;;;5049527;28;20250;-49
2022/02/24 08:39:31;;;;;;;2.00;1.63;;;8.60;99.90;;;;;;5048879;28;20192;-51
2022/02/24 08:41:59;;;;;;;2.30;1.88;;;8.60;99.90;;;;;;5048455;28;20225;-49
2022/02/24 08:44:30;;;;;;;2.10;1.60;;;8.60;99.90;;;;;;5028158;28;20312;-50
2022/02/24 08:46:58;;;;;;;1.80;1.42;;;8.60;99.90;;;;;;5029635;28;20245;-49
2022/02/24 08:49:32;;;;;;;2.50;1.25;;;8.60;99.90;;;;;;5028956;28;20624;-49
2022/02/24 08:52:00;;;;;;;2.42;1.30;;;8.60;99.90;;;;;;5029600;28;20569;-49
2022/02/24 08:54:32;;;;;;;2.20;1.00;;;8.60;99.90;;;;;;5028502;28;20200;-50
2022/02/24 08:57:00;;;;;;;2.00;1.40;;;8.60;99.90;;;;;;5029235;28;20201;-50
2022/02/24 08:59:31;;;;;;;2.28;1.27;;;8.60;99.90;;;;;;5033014;28;20658;-50
2022/02/24 09:01:59;;;;;;;2.88;1.50;;;8.60;99.90;;;;;;5042360;28;20302;-50
2022/02/24 09:04:28;;;;;;;2.05;1.10;;;8.60;99.90;;;;;;5030843;28;20265;-49
2022/02/24 09:06:56;;;;;;;2.85;1.38;;;8.60;99.90;;;;;;5053556;28;20201;-49
2022/02/24 09:09:25;;;;;;;2.38;1.30;;;8.60;99.90;;;;;;5053137;28;21076;-49
2022/02/24 09:11:54;;;;;;;2.33;1.77;;;8.60;99.90;;;;;;5053693;28;20240;-50
2022/02/24 09:14:22;;;;;;;1.60;1.25;;;8.60;99.90;;;;;;5051537;28;20744;-50
2022/02/24 09:16:54;;;;;;;2.38;1.73;;;8.60;99.90;;;;;;5053368;28;20189;-49
2022/02/24 09:19:26;;;;;;;1.37;1.27;;;8.60;99.90;;;;;;5050545;28;20203;-49
2022/02/24 09:21:55;;;;;;;1.83;1.47;;;8.60;99.90;;;;;;5053294;28;20478;-50
2022/02/24 09:24:23;;;;;;;1.80;1.43;;;8.60;99.90;;;;;;5052135;28;20544;-49
2022/02/24 09:26:51;;;;;;;1.48;1.20;;;8.60;99.90;;;;;;5051659;28;20427;-50
2022/02/24 09:29:28;;;;;;;2.45;1.50;;;8.60;99.90;;;;;;5013357;28;20258;-49
2022/02/24 09:31:56;;;;;;;1.20;1.10;;;8.60;99.90;;;;;;5013051;28;20227;-49
2022/02/24 09:34:24;;;;;;;2.60;1.33;;;8.60;99.90;;;;;;5015070;28;20275;-49
2022/02/24 09:36:53;;;;;;;1.58;1.40;;;8.60;99.90;;;;;;5052909;28;20202;-49
2022/02/24 09:39:23;;;;;;;2.65;1.17;;;8.60;99.90;;;;;;5052434;28;20205;-48
2022/02/24 09:41:51;;;;;;;1.90;1.30;;;8.60;99.90;;;;;;5052603;28;20222;-50
2022/02/24 09:44:21;;;;;;;2.13;1.30;;;8.60;99.90;;;;;;5041113;28;20524;-49
2022/02/24 09:46:53;;;;;;;1.23;1.10;;;8.60;99.90;;;;;;5031963;28;20751;-49
2022/02/24 09:49:23;;;;;;;1.77;1.17;;;8.60;99.90;;;;;;5032644;28;20216;-50
2022/02/24 09:51:51;;;;;;;1.53;1.17;;;8.60;99.90;;;;;;5052703;28;20448;-50
2022/02/24 09:54:22;;;;;;;1.77;1.47;;;8.60;99.90;;;;;;5052308;28;20765;-50
2022/02/24 09:56:52;;;;;;;1.77;1.20;;;8.60;99.90;;;;;;5045692;28;20869;-49
2022/02/24 09:59:24;;;;;;;1.97;1.57;;;8.60;99.90;;;;;;5042083;28;20219;-49
2022/02/24 10:01:55;;;;;;;1.77;1.30;;;8.60;99.90;;;;;;5052487;28;20454;-49
2022/02/24 10:04:25;;;;;;;1.88;1.45;;;8.60;99.90;;;;;;5048346;28;20459;-50
2022/02/24 10:06:53;;;;;;;3.67;1.70;;;8.50;99.90;;;;;;5032667;28;20724;-50
2022/02/24 10:09:30;;;;;;;1.65;1.42;;;8.50;99.90;;;;;;5031824;28;20262;-51
2022/02/24 10:12:06;;;;;;;1.83;1.25;;;8.50;99.90;;;;;;5032449;28;20204;-50
2022/02/24 10:14:36;;;;;;;1.35;1.15;;;8.50;99.90;;;;;;5040438;28;20195;-50
2022/02/24 10:17:05;;;;;;;2.25;1.40;;;8.50;99.90;;;;;;5051897;28;20243;-50
2022/02/24 10:19:37;;;;;;;1.42;1.27;;;8.50;99.90;;;;;;5047761;28;20234;-50
2022/02/24 10:22:07;;;;;;;1.75;1.20;;;8.50;99.90;;;;;;5031909;28;20214;-49
2022/02/24 10:24:36;;;;;;;2.00;1.60;;;8.60;99.90;;;;;;5031459;28;20650;-48
2022/02/24 10:27:22;;;;;;;1.42;1.30;;;8.60;99.90;;;;;;5032379;28;20223;-50
2022/02/24 10:30:07;;;;;;;1.50;1.40;;;8.50;99.90;;;;;;5043919;28;20295;-49
2022/02/24 10:32:37;;;;;;;2.05;1.50;;;8.50;99.90;;;;;;5051920;28;20799;-49
2022/02/24 10:35:27;;;;;;;1.83;1.73;;;8.50;99.90;;;;;;5046158;28;20241;-50
2022/02/24 10:38:02;;;;;;;4.20;2.05;;;8.60;99.90;;;;;;5033046;28;20251;-48
2022/02/24 10:40:33;;;;;;;4.45;2.58;;;8.60;99.90;;;;;;5020877;28;20224;-49
2022/02/24 10:43:16;;;;;;;4.90;2.00;;;8.60;99.90;;;;;;5041064;22;20225;-51
2022/02/24 10:45:47;;;;;;;4.38;1.80;;;8.60;99.90;;;;;;5033471;28;20254;-51
2022/02/24 10:48:15;;;;;;;2.65;2.13;;;8.60;99.90;;;;;;5048714;28;20208;-52
2022/02/24 10:50:56;;;;;;;2.22;1.70;;;8.60;99.90;;;;;;5037960;28;20312;-53
2022/02/24 10:53:27;;;;;;;5.63;2.05;;;8.60;99.90;;;;;;5029959;28;20198;-52
2022/02/24 10:56:15;;;;;;;3.20;2.28;;;8.60;99.90;;;;;;5021391;28;20574;-52
2022/02/24 10:58:45;;;;;;;3.50;1.80;;;8.60;99.90;;;;;;5018455;28;20608;-50
2022/02/24 11:01:19;;;;;;;2.55;1.70;;;8.60;99.90;;;;;;5031017;28;20724;-52
2022/02/24 11:03:49;;;;;;;2.40;1.90;;;8.60;99.90;;;;;;5032263;28;20272;-52
2022/02/24 11:06:20;;;;;;;2.40;2.00;;;8.60;99.90;;;;;;5029836;28;20223;-52
2022/02/24 11:08:50;;;;;;;2.17;1.98;;;8.60;99.90;;;;;;5038449;28;20189;-52
2022/02/24 11:11:20;;;;;;;2.25;1.67;;;8.60;99.90;;;;;;5042190;28;20249;-52
2022/02/24 11:13:49;;;;;;;2.10;1.90;;;8.60;99.90;;;;;;5033124;28;20201;-51
2022/02/24 11:16:22;;;;;;;2.70;1.63;;;8.60;99.90;;;;;;5026009;28;20213;-51
2022/02/24 11:18:52;;;;;;;3.03;1.90;;;8.60;99.90;;;;;;5034091;28;20199;-51
2022/02/24 11:21:21;;;;;;;3.55;2.17;;;8.60;99.90;;;;;;5025415;28;20306;-52
2022/02/24 11:23:51;;;;;;;2.27;1.73;;;8.60;99.90;;;;;;5032471;28;20252;-52
2022/02/24 11:26:47;;;;;;;1.88;1.67;;;8.60;99.90;;;;;;5032927;28;20904;-52
2022/02/24 11:29:43;;;;;;;1.85;1.30;;;8.60;99.90;;;;;;5018006;28;20262;-52
2022/02/24 11:32:32;;;;;;;2.58;1.35;;;8.60;99.90;;;;;;5029150;28;20293;-52
2022/02/24 11:35:22;;;;;;;1.77;1.60;;;8.60;99.90;;;;;;5009511;28;20286;-54
2022/02/24 11:37:53;;;;;;;2.60;2.10;;;8.60;99.90;;;;;;5031023;28;20185;-51
2022/02/24 11:40:24;;;;;;;3.17;1.67;;;8.60;99.90;;;;;;5035752;28;20227;-53
2022/02/24 11:43:04;;;;;;;1.85;1.60;;;8.60;99.90;;;;;;5028754;28;20204;-53
2022/02/24 11:45:36;;;;;;;1.48;1.38;;;8.60;99.90;;;;;;5014329;28;20408;-52
2022/02/24 11:48:08;;;;;;;3.33;2.10;;;8.60;99.90;;;;;;5033576;28;20282;-52
2022/02/24 11:50:39;;;;;;;2.22;1.48;;;8.60;99.90;;;;;;5025912;28;20229;-51
2022/02/24 11:53:09;;;;;;;1.95;1.73;;;8.60;99.90;;;;;;5029099;28;20218;-50
2022/02/24 11:55:52;;;;;;;1.50;1.40;;;8.60;99.90;;;;;;5027870;28;20690;-51
2022/02/24 11:58:49;;;;;;;2.72;1.80;;;8.60;99.90;;;;;;5034411;28;20241;-52
2022/02/24 12:01:30;;;;;;;1.75;1.52;;;8.60;99.90;;;;;;5026455;28;20644;-52
2022/02/24 12:04:18;;;;;;;2.95;1.85;;;8.60;99.90;;;;;;5039236;28;20206;-52
2022/02/24 12:06:58;;;;;;;2.28;1.30;;;8.60;99.90;;;;;;5021142;28;20227;-52
2022/02/24 12:09:30;;;;;;;1.75;1.17;;;8.60;99.90;;;;;;5028813;28;20187;-52
2022/02/24 12:12:00;;;;;;;2.67;1.60;;;8.60;99.90;;;;;;5036236;28;20583;-51
2022/02/24 12:14:49;;;;;;;2.60;1.73;;;8.60;99.90;;;;;;5032328;28;20197;-52
2022/02/24 12:17:46;;;;;;;2.35;1.65;;;8.60;99.90;;;;;;5145100;22;20225;-48
2022/02/24 12:20:26;;;;;;;1.67;1.58;;;8.60;99.90;;;;;;5066248;28;20225;-49
2022/02/24 12:22:55;;;;;;;2.17;1.58;;;8.60;99.90;;;;;;5069052;28;20198;-48
2022/02/24 12:25:25;;;;;;;4.55;1.70;;;8.60;99.90;;;;;;5068457;28;20250;-48
2022/02/24 12:28:04;;;;;;;2.60;1.50;;;8.60;99.90;;;;;;5068486;28;20198;-49
2022/02/24 12:30:37;;;;;;;1.98;1.30;;;8.60;99.90;;;;;;5060727;28;20836;-49
2022/02/24 12:35:59;;;;;;;1.80;1.42;;;8.60;99.90;;;;;;5000272;28;20628;-52
2022/02/24 12:38:29;;;;;;;2.15;1.58;;;8.60;99.90;;;;;;5005458;28;20248;-52
2022/02/24 12:40:59;;;;;;;1.85;1.48;;;8.60;99.90;;;;;;5015503;28;20285;-51
2022/02/24 12:43:28;;;;;;;2.80;1.48;;;8.60;99.90;;;;;;5026340;28;20230;-50
2022/02/24 12:45:57;;;;;;;1.77;1.65;;;8.60;99.90;;;;;;5021264;28;20258;-52
2022/02/24 12:48:27;;;;;;;3.35;1.50;;;8.60;99.90;;;;;;5027435;28;20200;-53
2022/02/24 12:50:56;;;;;;;1.98;1.30;;;8.60;99.90;;;;;;5014428;28;20232;-51
2022/02/24 12:53:28;;;;;;;2.30;1.50;;;8.60;99.90;;;;;;5028114;28;20193;-52
2022/02/24 12:55:58;;;;;;;1.40;1.30;;;8.60;99.90;;;;;;5027889;28;20706;-52
2022/02/24 12:58:28;;;;;;;1.75;1.55;;;8.60;99.90;;;;;;5028512;28;20949;-50
2022/02/24 13:00:58;;;;;;;2.00;1.48;;;8.60;99.90;;;;;;5022572;28;20227;-50
2022/02/24 13:03:28;;;;;;;1.60;1.50;;;8.60;99.90;;;;;;5009810;28;20189;-52
2022/02/24 13:05:59;;;;;;;2.10;1.40;;;8.70;99.90;;;;;;5013261;28;20295;-52
2022/02/24 13:11:20;;;;;;;2.90;1.20;;;8.60;99.90;;;;;;5008202;28;20485;-52
2022/02/24 13:13:51;;;;;;;1.40;1.30;;;8.60;99.90;;;;;;5008273;28;20749;-51
2022/02/24 13:16:21;;;;;;;2.80;1.30;;;8.60;99.90;;;;;;5014046;28;20474;-52
2022/02/24 13:18:53;;;;;;;2.15;1.63;;;8.70;99.90;;;;;;5028593;28;20509;-53
2022/02/24 13:21:25;;;;;;;1.55;1.17;;;8.70;99.90;;;;;;4999706;28;20236;-52